Airfield :
LOGIN :

Register | Disclaimer

   EN    FR    IT 

 










Legend :    VFR   Marginal VFR   IFR   Intensive IFR   Very Intensive IFR
Visi :
Ceiling :
>= 8 km
>= 3000ft
5 to 8 km
1000 to 3000 ft
1500m to 5 km
500 to 1000 ft
800 to 1500m
200 to 500 ft
< 800m
< 200 ft
Symbols :   Thunderstorms  Fog  Heavy snow  Heavy precipitations  Wind > 20 kt
SIGMETs :     Misc.  Thunderstorms  Icing  Turbulence  Mountain Waves  Volcanic Ashes






- Airport Elevation : 31 ft
- IATA code : INV


EGPE - Inverness

CURRENT METAR :
  • 271150Z 19002KT 9999 RA FEW006 SCT015 BKN030 09/08 Q0997

EXPIRED METARs :
  • 271120Z 23002KT 9000 RA FEW006 SCT018 BKN038 09/08 Q0997
  • 271050Z 22002KT 9000 -RA FEW006 BKN036 09/08 Q0998
  • 271020Z 23003KT 8000 -RA FEW006 SCT010 BKN033 09/08 Q0997 RERA
  • 270950Z VRB03KT 4000 RA FEW003 SCT010 BKN029 09/07 Q0997
  • 270920Z 25006KT 4000 RA FEW003 SCT010 BKN028 09/08 Q0997

TAF TAF EGPE
Valid from the 27 at 12:00 until the 27 at 21:00 UTC


271059Z 2712/2721 24008KT 9999 SCT035
PROB40
TEMPO 2712/2716 6000 SHRA BKN014
ATIS : +44 1667 464 255



MET'MAP, your aeronautical weather chart ! - Copyright ORBIFLY December 2007 - Disclaimer

ORBIFLY MET'MAP TEAM :

Programming & Development : Alexandra Zaïnal
Concept & original design : Baudouin d'Aumeries
Assistance for programming : Marc-Olivier Méhu
Technical & hardware support : Manuel Goepfert

Contact : metmap@orbifly.com




SOURCES & CREDITS :

   NOAA